Time;durP1;ratioP1;P1;durP2;ratioP2;P2;SDS_P1;SDS_P2;PMS_P1;PMS_P2;Temp;Humidity;BMP_temperature;BMP_pressure;BME280_temperature;BME280_humidity;BME280_pressure;Samples;Min_cycle;Max_cycle;Signal;HPM_P1;HPM_P2
2022/10/18 00:01:35;;;;;;;12.40;10.13;;;13.70;99.90;;;;;;5221663;28;20017;-75
2022/10/18 00:04:09;;;;;;;11.50;9.15;;;13.60;99.90;;;;;;5221553;28;20029;-75
2022/10/18 00:06:46;;;;;;;13.70;8.82;;;13.50;99.90;;;;;;5179406;28;20055;-75
2022/10/18 00:09:19;;;;;;;15.45;9.52;;;13.40;99.90;;;;;;5221709;28;20032;-75
2022/10/18 00:11:55;;;;;;;13.97;9.30;;;13.20;99.90;;;;;;5221573;28;20443;-75
2022/10/18 00:14:26;;;;;;;13.68;10.43;;;13.10;99.90;;;;;;5203538;28;20021;-75
2022/10/18 00:16:57;;;;;;;14.20;10.80;;;12.90;99.90;;;;;;5220395;28;20035;-75
2022/10/18 00:19:29;;;;;;;16.13;10.15;;;12.70;99.90;;;;;;5203389;28;20041;-75
2022/10/18 00:22:05;;;;;;;12.48;10.50;;;12.60;99.90;;;;;;5221516;28;20035;-75
2022/10/18 00:24:39;;;;;;;15.73;11.05;;;12.50;99.90;;;;;;5220411;28;20023;-75
2022/10/18 00:27:10;;;;;;;17.13;11.63;;;12.40;99.90;;;;;;5204092;28;20033;-75
2022/10/18 00:29:41;;;;;;;15.65;11.38;;;12.40;99.90;;;;;;5221374;28;20025;-75
2022/10/18 00:32:15;;;;;;;15.18;10.57;;;12.40;99.90;;;;;;5226625;28;20056;-75
2022/10/18 00:34:46;;;;;;;16.63;11.77;;;12.30;99.90;;;;;;5225336;28;20029;-77
2022/10/18 00:37:20;;;;;;;17.05;11.73;;;12.20;99.90;;;;;;5221591;28;20379;-75
2022/10/18 00:39:51;;;;;;;19.98;12.45;;;12.00;99.90;;;;;;5204996;28;20024;-75
2022/10/18 00:42:27;;;;;;;18.23;12.07;;;11.90;99.90;;;;;;5221930;28;20490;-75
2022/10/18 00:45:04;;;;;;;22.27;12.50;;;11.80;99.90;;;;;;5221915;28;20025;-75
2022/10/18 00:47:39;;;;;;;21.40;13.18;;;11.70;99.90;;;;;;5220634;28;20340;-75
2022/10/18 00:50:12;;;;;;;17.92;12.52;;;11.70;99.90;;;;;;5215378;28;20044;-75
2022/10/18 00:52:50;;;;;;;16.48;11.60;;;11.60;99.90;;;;;;5206434;28;20043;-74
2022/10/18 00:55:22;;;;;;;15.48;11.68;;;11.60;99.90;;;;;;5216618;28;20033;-74
2022/10/18 00:57:54;;;;;;;22.00;13.40;;;11.50;99.90;;;;;;5233802;28;20055;-74
2022/10/18 01:00:26;;;;;;;19.35;13.18;;;11.40;99.90;;;;;;5208065;28;20041;-74
2022/10/18 01:02:58;;;;;;;20.08;12.65;;;11.30;99.90;;;;;;5196713;28;20037;-74
2022/10/18 01:05:30;;;;;;;19.35;12.18;;;11.30;99.90;;;;;;5206988;28;20079;-74
2022/10/18 01:08:44;;;;;;;16.45;11.73;;;11.20;99.90;;;;;;5195856;28;20531;-74
2022/10/18 01:11:34;;;;;;;17.75;13.23;;;11.20;99.90;;;;;;5214660;28;20045;-76
2022/10/18 01:14:23;;;;;;;16.48;11.38;;;11.10;99.90;;;;;;5215998;28;20017;-75
2022/10/18 01:17:22;;;;;;;16.40;11.55;;;11.10;99.90;;;;;;5212045;28;20025;-76
2022/10/18 01:20:17;;;;;;;18.48;13.07;;;11.00;99.90;;;;;;5220497;28;20033;-75
2022/10/18 01:23:03;;;;;;;;;;;11.00;99.90;;;;;;5221662;28;20045;-76
2022/10/18 01:26:04;;;;;;;19.52;13.05;;;11.00;99.90;;;;;;5216972;28;20313;-75
2022/10/18 01:28:53;;;;;;;16.90;12.23;;;11.00;99.90;;;;;;5208305;28;20017;-75
2022/10/18 01:31:38;;;;;;;18.10;12.55;;;10.90;99.90;;;;;;5205260;28;20049;-75
2022/10/18 01:34:10;;;;;;;;;;;10.90;99.90;;;;;;5214411;28;20031;-75
2022/10/18 01:36:46;;;;;;;20.85;14.00;;;10.80;99.90;;;;;;5202098;28;19919;-76
2022/10/18 01:39:31;;;;;;;23.63;13.27;;;10.80;99.90;;;;;;5220396;28;20013;-76
2022/10/18 01:42:10;;;;;;;22.08;13.60;;;10.80;99.90;;;;;;5219974;28;20039;-75
2022/10/18 01:44:44;;;;;;;25.67;14.45;;;10.70;99.90;;;;;;5197886;28;20025;-75
2022/10/18 01:47:16;;;;;;;19.70;13.02;;;10.70;99.90;;;;;;5215832;28;20152;-73
2022/10/18 01:49:48;;;;;;;21.40;14.57;;;10.60;99.90;;;;;;5201997;28;20075;-76
2022/10/18 01:52:21;;;;;;;20.70;13.82;;;10.60;99.90;;;;;;5216326;28;20303;-75
2022/10/18 01:54:56;;;;;;;21.73;14.93;;;10.50;99.90;;;;;;5221253;28;20024;-74
2022/10/18 01:57:42;;;;;;;18.95;13.65;;;10.50;99.90;;;;;;5219630;28;20035;-74
2022/10/18 02:00:15;;;;;;;20.92;14.05;;;10.40;99.90;;;;;;5191462;28;20041;-74
2022/10/18 02:02:55;;;;;;;19.80;13.20;;;10.40;99.90;;;;;;5217670;28;20248;-75
2022/10/18 02:05:26;;;;;;;18.75;12.52;;;10.40;99.90;;;;;;5194406;28;20048;-74
2022/10/18 02:08:00;;;;;;;22.88;14.68;;;10.40;99.90;;;;;;5194737;28;20040;-74
2022/10/18 02:10:52;;;;;;;25.77;14.30;;;10.30;99.90;;;;;;5181529;28;20044;-74
2022/10/18 02:13:28;;;;;;;24.50;14.80;;;10.40;99.90;;;;;;5214499;28;20029;-74
2022/10/18 02:16:06;;;;;;;22.40;14.48;;;10.30;99.90;;;;;;5199451;28;20030;-75
2022/10/18 02:18:49;;;;;;;20.27;14.77;;;10.30;99.90;;;;;;5239766;28;20025;-75
2022/10/18 02:21:21;;;;;;;20.02;13.60;;;10.20;99.90;;;;;;5244404;28;20474;-75
2022/10/18 02:23:53;;;;;;;23.13;14.80;;;10.20;99.90;;;;;;5234700;28;20029;-75
2022/10/18 02:26:25;;;;;;;20.48;14.10;;;10.20;99.90;;;;;;5223980;28;20016;-75
2022/10/18 02:28:56;;;;;;;20.38;14.20;;;10.10;99.90;;;;;;5223526;28;20031;-75
2022/10/18 02:31:34;;;;;;;20.85;14.02;;;10.10;99.90;;;;;;5203278;28;20036;-75
2022/10/18 02:34:14;;;;;;;21.75;13.95;;;10.10;99.90;;;;;;5228889;28;20028;-75
2022/10/18 02:36:56;;;;;;;22.40;13.25;;;10.00;99.90;;;;;;5203230;28;20043;-75
2022/10/18 02:39:36;;;;;;;21.98;14.02;;;10.00;99.90;;;;;;5202779;28;20052;-75
2022/10/18 02:42:12;;;;;;;23.92;15.32;;;10.00;99.90;;;;;;5213409;28;20017;-75
2022/10/18 02:44:43;;;;;;;21.17;14.15;;;10.00;99.90;;;;;;5216772;28;20021;-75
2022/10/18 02:47:14;;;;;;;22.20;14.00;;;10.00;99.90;;;;;;5222358;28;20084;-75
2022/10/18 02:49:47;;;;;;;22.40;14.40;;;9.90;99.90;;;;;;5222497;28;20037;-75
2022/10/18 02:52:18;;;;;;;23.83;14.98;;;9.90;99.90;;;;;;5223106;28;20591;-75
2022/10/18 02:54:52;;;;;;;23.02;15.73;;;9.90;99.90;;;;;;5223390;28;20494;-75
2022/10/18 02:57:26;;;;;;;25.38;14.23;;;10.00;99.90;;;;;;5220956;28;20025;-75
2022/10/18 02:59:57;;;;;;;24.27;15.23;;;9.90;99.90;;;;;;5200474;28;20033;-75
2022/10/18 03:02:29;;;;;;;23.05;15.02;;;10.00;99.90;;;;;;5229590;28;20575;-75
2022/10/18 03:05:03;;;;;;;21.48;16.23;;;10.00;99.90;;;;;;5215726;28;20052;-74
2022/10/18 03:07:34;;;;;;;;;;;10.00;99.90;;;;;;5224057;28;20037;-76
2022/10/18 03:10:06;;;;;;;21.48;13.48;;;9.90;99.90;;;;;;5197223;28;19920;-75
2022/10/18 03:12:42;;;;;;;23.88;14.63;;;9.90;99.90;;;;;;5202489;28;20048;-75
2022/10/18 03:15:13;;;;;;;23.05;14.77;;;9.90;99.90;;;;;;5222951;28;20376;-73
2022/10/18 03:17:47;;;;;;;25.80;15.45;;;9.90;99.90;;;;;;5223099;28;20035;-75
2022/10/18 03:20:20;;;;;;;26.70;16.23;;;9.80;99.90;;;;;;5196797;28;20033;-74
2022/10/18 03:22:52;;;;;;;22.65;14.68;;;9.90;99.90;;;;;;5203157;28;20060;-76
2022/10/18 03:25:23;;;;;;;23.17;14.65;;;9.90;99.90;;;;;;5220782;28;20036;-75
2022/10/18 03:28:00;;;;;;;29.38;15.48;;;9.80;99.90;;;;;;5222210;28;20029;-75
2022/10/18 03:30:34;;;;;;;22.92;14.85;;;9.70;99.90;;;;;;5223896;28;20035;-75
2022/10/18 03:33:08;;;;;;;27.33;16.40;;;9.70;99.90;;;;;;5223770;28;20558;-75
2022/10/18 03:35:39;;;;;;;25.45;15.20;;;9.70;99.90;;;;;;5206526;28;20071;-74
2022/10/18 03:38:13;;;;;;;25.10;16.13;;;9.80;99.90;;;;;;5197492;28;20008;-74
2022/10/18 03:40:46;;;;;;;22.92;15.27;;;9.80;99.90;;;;;;5221021;28;20041;-74
2022/10/18 03:43:18;;;;;;;27.02;16.40;;;9.80;99.90;;;;;;5224568;28;20033;-74
2022/10/18 03:45:49;;;;;;;24.00;15.35;;;9.80;99.90;;;;;;5243846;28;20020;-74
2022/10/18 03:48:24;;;;;;;21.20;15.55;;;9.70;99.90;;;;;;5244517;28;20550;-74
2022/10/18 03:50:55;;;;;;;22.83;15.38;;;9.70;99.90;;;;;;5243697;28;20024;-74
2022/10/18 03:53:26;;;;;;;25.17;15.15;;;9.80;99.90;;;;;;5228360;28;20379;-74
2022/10/18 03:56:00;;;;;;;25.42;15.73;;;9.80;99.90;;;;;;5206078;28;20025;-74
2022/10/18 03:58:33;;;;;;;21.67;13.52;;;9.70;99.90;;;;;;5222809;28;20025;-73
2022/10/18 04:01:06;;;;;;;28.77;16.75;;;9.70;99.90;;;;;;5227274;28;20039;-74
2022/10/18 04:03:37;;;;;;;23.50;15.25;;;9.60;99.90;;;;;;5227519;28;20043;-75
2022/10/18 04:06:12;;;;;;;26.83;14.75;;;9.60;99.90;;;;;;5214255;28;20041;-75
2022/10/18 04:08:46;;;;;;;25.40;15.65;;;9.50;99.90;;;;;;5204573;28;20047;-75
2022/10/18 04:11:17;;;;;;;27.02;15.88;;;9.50;99.90;;;;;;5223184;28;20202;-76
2022/10/18 04:13:54;;;;;;;27.80;16.42;;;9.50;99.90;;;;;;5204085;28;20040;-76
2022/10/18 04:16:27;;;;;;;22.95;15.77;;;9.40;99.90;;;;;;5206610;28;20048;-75
2022/10/18 04:19:02;;;;;;;27.02;16.77;;;9.40;99.90;;;;;;5222807;28;20033;-74
2022/10/18 04:21:36;;;;;;;23.67;15.18;;;9.40;99.90;;;;;;5222174;28;20043;-75
2022/10/18 04:24:07;;;;;;;23.70;15.23;;;9.30;99.90;;;;;;5222740;28;20029;-74
2022/10/18 04:26:40;;;;;;;25.25;16.33;;;9.30;99.90;;;;;;5188713;28;20043;-75
2022/10/18 04:29:13;;;;;;;23.60;15.38;;;9.30;99.90;;;;;;5222754;28;20029;-75
2022/10/18 04:31:47;;;;;;;24.90;15.00;;;9.30;99.90;;;;;;5223532;28;20037;-75
2022/10/18 04:34:19;;;;;;;25.63;15.73;;;9.30;99.90;;;;;;5230729;28;20040;-75
2022/10/18 04:36:53;;;;;;;24.50;15.38;;;9.40;99.90;;;;;;5204693;28;20028;-74
2022/10/18 04:39:24;;;;;;;32.70;17.52;;;9.30;99.90;;;;;;5203997;28;20025;-74
2022/10/18 04:41:56;;;;;;;27.42;17.67;;;9.30;99.90;;;;;;5201692;28;20051;-74
2022/10/18 04:44:28;;;;;;;23.42;15.45;;;9.30;99.90;;;;;;5204071;28;20102;-74
2022/10/18 04:46:59;;;;;;;28.50;16.85;;;9.40;99.90;;;;;;5219389;28;20039;-74
2022/10/18 04:49:31;;;;;;;25.85;16.77;;;9.30;99.90;;;;;;5211899;28;20028;-73
2022/10/18 04:52:03;;;;;;;22.92;16.02;;;9.30;99.90;;;;;;5200342;28;20033;-75
2022/10/18 04:54:39;;;;;;;27.67;17.05;;;9.30;99.90;;;;;;5200405;28;20037;-74
2022/10/18 04:57:10;;;;;;;26.73;16.95;;;9.30;99.90;;;;;;5220145;28;20025;-74
2022/10/18 04:59:41;;;;;;;25.38;15.77;;;9.30;99.90;;;;;;5201649;28;20021;-74
2022/10/18 05:02:17;;;;;;;28.83;17.02;;;9.30;99.90;;;;;;5201918;28;20029;-74
2022/10/18 05:04:52;;;;;;;29.35;16.63;;;9.20;99.90;;;;;;5207902;28;20537;-75
2022/10/18 05:07:30;;;;;;;26.10;16.90;;;9.30;99.90;;;;;;5218599;28;20040;-74
2022/10/18 05:10:07;;;;;;;32.45;15.88;;;9.30;99.90;;;;;;5213829;28;20020;-74
2022/10/18 05:12:38;;;;;;;28.58;16.58;;;9.30;99.90;;;;;;5226820;28;20035;-74
2022/10/18 05:15:10;;;;;;;28.83;16.45;;;9.30;99.90;;;;;;5182846;28;20033;-74
2022/10/18 05:17:41;;;;;;;29.20;17.92;;;9.30;99.90;;;;;;5212287;28;20023;-75
2022/10/18 05:20:13;;;;;;;25.05;16.42;;;9.20;99.90;;;;;;5203635;28;20546;-75
2022/10/18 05:22:44;;;;;;;26.88;16.58;;;9.20;99.90;;;;;;5211298;28;20029;-75
2022/10/18 05:25:18;;;;;;;26.98;17.42;;;9.10;99.90;;;;;;5202385;28;20108;-75
2022/10/18 05:27:54;;;;;;;24.50;16.38;;;9.20;99.90;;;;;;5221030;28;20025;-74
2022/10/18 05:30:28;;;;;;;25.00;16.73;;;9.20;99.90;;;;;;5226223;28;20036;-74
2022/10/18 05:32:59;;;;;;;26.25;16.60;;;9.30;99.90;;;;;;5231590;28;20024;-74
2022/10/18 05:35:31;;;;;;;27.27;17.02;;;9.40;99.90;;;;;;5207092;28;20024;-75
2022/10/18 05:38:07;;;;;;;24.63;17.33;;;9.50;99.90;;;;;;5221013;28;20419;-75
2022/10/18 05:40:38;;;;;;;25.63;17.30;;;9.50;99.90;;;;;;5224986;28;20039;-75
2022/10/18 05:43:09;;;;;;;26.90;16.52;;;9.50;99.90;;;;;;5212441;28;20199;-75
2022/10/18 05:45:49;;;;;;;29.02;17.15;;;9.50;99.90;;;;;;5199360;28;20041;-75
2022/10/18 05:48:20;;;;;;;39.67;18.77;;;9.50;99.90;;;;;;5224961;28;20621;-74
2022/10/18 05:50:52;;;;;;;26.98;18.33;;;9.50;99.90;;;;;;5220289;28;20024;-74
2022/10/18 05:53:23;;;;;;;25.75;16.15;;;9.60;99.90;;;;;;5205241;28;20288;-73
2022/10/18 05:55:58;;;;;;;27.60;17.52;;;9.70;99.90;;;;;;5220468;28;20027;-75
2022/10/18 05:58:29;;;;;;;27.42;16.55;;;9.70;99.90;;;;;;5217493;28;20035;-74
2022/10/18 06:01:06;;;;;;;27.35;17.77;;;9.80;99.90;;;;;;5214914;28;20031;-74
2022/10/18 06:03:38;;;;;;;33.33;19.85;;;9.90;99.90;;;;;;5217073;28;20037;-74
2022/10/18 06:06:10;;;;;;;36.30;17.92;;;10.00;99.90;;;;;;5223063;28;20052;-74
2022/10/18 06:08:42;;;;;;;31.58;18.38;;;10.10;99.90;;;;;;5214694;28;20047;-74
2022/10/18 06:11:17;;;;;;;40.42;18.98;;;10.20;99.90;;;;;;5223610;28;20368;-74
2022/10/18 06:13:53;;;;;;;30.88;18.00;;;10.30;99.90;;;;;;5225244;28;20491;-76
2022/10/18 06:16:27;;;;;;;24.95;16.70;;;10.40;99.90;;;;;;5203436;28;20472;-73
2022/10/18 06:19:01;;;;;;;25.45;17.05;;;10.50;99.90;;;;;;5186835;28;20041;-73
2022/10/18 06:21:32;;;;;;;26.42;16.60;;;10.60;99.90;;;;;;5217477;28;20047;-73
2022/10/18 06:24:06;;;;;;;24.35;15.68;;;10.80;99.90;;;;;;5223884;28;20033;-76
2022/10/18 06:26:37;;;;;;;25.00;15.57;;;10.90;99.90;;;;;;5245075;28;20055;-76
2022/10/18 06:29:11;;;;;;;24.42;16.30;;;11.00;99.90;;;;;;5223854;28;20033;-75
2022/10/18 06:31:45;;;;;;;24.73;16.45;;;11.20;99.90;;;;;;5210228;28;20036;-76
2022/10/18 06:34:18;;;;;;;26.08;15.02;;;11.40;99.90;;;;;;5205048;28;20052;-75
2022/10/18 06:36:49;;;;;;;29.27;14.63;;;11.40;99.90;;;;;;5198987;28;20048;-76
2022/10/18 06:39:21;;;;;;;23.13;13.98;;;11.50;99.90;;;;;;5210153;28;20016;-75
2022/10/18 06:41:52;;;;;;;18.70;13.73;;;11.60;99.90;;;;;;5224888;28;20035;-76
2022/10/18 06:44:26;;;;;;;19.67;12.55;;;11.60;99.90;;;;;;5221959;28;20035;-75
2022/10/18 06:46:57;;;;;;;19.70;12.63;;;11.70;99.90;;;;;;5226264;28;20052;-74
2022/10/18 06:49:28;;;;;;;21.20;12.90;;;11.80;99.90;;;;;;5224875;28;20440;-76
2022/10/18 06:52:01;;;;;;;17.73;12.32;;;12.00;99.90;;;;;;5206034;28;20032;-73
2022/10/18 06:54:35;;;;;;;18.75;12.82;;;12.20;99.90;;;;;;5221946;28;20348;-74
2022/10/18 06:57:08;;;;;;;19.40;12.90;;;12.40;99.90;;;;;;5204024;28;20036;-75
2022/10/18 06:59:42;;;;;;;17.45;11.45;;;12.40;99.90;;;;;;5221453;28;20028;-76
2022/10/18 07:02:16;;;;;;;20.08;12.50;;;12.70;99.90;;;;;;5219174;28;20252;-75
2022/10/18 07:04:47;;;;;;;18.13;11.55;;;12.80;99.90;;;;;;5193714;28;20063;-75
2022/10/18 07:07:21;;;;;;;14.15;11.38;;;13.00;99.90;;;;;;5222208;28;20037;-75
2022/10/18 07:09:52;;;;;;;21.38;12.80;;;13.10;99.90;;;;;;5221696;28;20036;-77
2022/10/18 07:12:23;;;;;;;18.92;12.13;;;13.50;99.90;;;;;;5205240;28;20033;-77
2022/10/18 07:14:54;;;;;;;21.45;11.43;;;13.70;99.90;;;;;;5205242;28;20017;-74
2022/10/18 07:17:26;;;;;;;14.85;11.57;;;14.10;99.90;;;;;;5236538;28;20032;-75
2022/10/18 07:20:00;;;;;;;15.88;11.15;;;14.00;99.90;;;;;;5237712;28;20028;-75
2022/10/18 07:22:32;;;;;;;14.63;11.60;;;13.80;99.90;;;;;;5231064;28;20040;-76
2022/10/18 07:25:05;;;;;;;19.02;11.38;;;14.20;99.90;;;;;;5224397;28;20017;-76
2022/10/18 07:27:41;;;;;;;23.15;11.90;;;14.70;99.90;;;;;;5205537;28;20447;-76
2022/10/18 07:30:12;;;;;;;17.33;10.43;;;15.00;99.90;;;;;;5200456;28;20018;-75
2022/10/18 07:32:43;;;;;;;18.77;11.70;;;15.20;99.90;;;;;;5196309;28;20583;-75
2022/10/18 07:35:15;;;;;;;17.08;11.32;;;15.20;99.90;;;;;;5207622;28;20032;-75
2022/10/18 07:37:51;;;;;;;20.95;11.32;;;14.60;99.90;;;;;;5225373;28;20329;-75
2022/10/18 07:40:22;;;;;;;14.20;10.15;;;14.40;99.90;;;;;;5216633;28;20032;-76
2022/10/18 07:42:53;;;;;;;15.05;10.20;;;14.70;99.90;;;;;;5223359;28;20035;-75
2022/10/18 07:45:26;;;;;;;24.40;11.75;;;15.20;99.90;;;;;;5223277;28;20017;-76
2022/10/18 07:48:00;;;;;;;24.08;12.20;;;15.60;99.90;;;;;;5222906;28;20035;-76
2022/10/18 07:50:32;;;;;;;15.98;10.40;;;15.30;99.90;;;;;;5222698;28;20021;-76
2022/10/18 07:53:05;;;;;;;18.20;10.82;;;15.70;99.90;;;;;;5221814;28;20234;-76
2022/10/18 07:55:36;;;;;;;16.67;10.35;;;15.70;99.90;;;;;;5219575;28;20041;-75
2022/10/18 07:58:08;;;;;;;37.30;12.10;;;15.80;99.90;;;;;;5201123;28;20041;-76
2022/10/18 08:00:39;;;;;;;14.00;10.27;;;16.40;99.90;;;;;;5211370;28;20025;-76
2022/10/18 08:03:10;;;;;;;19.60;10.95;;;16.00;99.90;;;;;;5221155;28;20043;-76
2022/10/18 08:05:41;;;;;;;15.13;8.80;;;16.20;99.90;;;;;;5211646;28;20047;-76
2022/10/18 08:08:15;;;;;;;14.55;9.20;;;16.70;99.90;;;;;;5223082;28;20039;-76
2022/10/18 08:10:47;;;;;;;11.93;8.82;;;17.00;99.90;;;;;;5203165;28;20357;-76
2022/10/18 08:13:20;;;;;;;49.70;13.88;;;17.30;99.90;;;;;;5220637;28;20344;-76
2022/10/18 08:16:02;;;;;;;21.92;9.48;;;17.40;99.90;;;;;;5221243;28;20267;-76
2022/10/18 08:18:33;;;;;;;14.05;8.45;;;17.50;99.90;;;;;;5200748;28;20040;-76
2022/10/18 08:21:09;;;;;;;14.43;8.73;;;17.90;99.90;;;;;;5221305;28;20155;-76
2022/10/18 08:23:41;;;;;;;13.10;8.65;;;18.10;99.90;;;;;;5185480;28;20553;-76
2022/10/18 08:26:17;;;;;;;16.95;9.15;;;18.40;99.90;;;;;;5217984;28;20029;-77
2022/10/18 08:28:49;;;;;;;15.90;9.40;;;18.50;99.90;;;;;;5215349;28;20057;-77
2022/10/18 08:31:20;;;;;;;13.90;9.27;;;18.10;99.90;;;;;;5206107;28;20037;-76
2022/10/18 08:33:56;;;;;;;14.57;8.73;;;18.10;99.90;;;;;;5217542;28;20027;-76
2022/10/18 08:36:27;;;;;;;13.75;9.15;;;18.10;99.90;;;;;;5220130;28;20020;-76
2022/10/18 08:39:01;;;;;;;13.27;8.57;;;18.50;99.90;;;;;;5219178;28;20051;-76
2022/10/18 08:41:35;;;;;;;;;;;19.00;99.90;;;;;;5199816;28;20043;-76
2022/10/18 08:44:12;;;;;;;11.27;9.05;;;19.20;99.90;;;;;;5199511;28;19901;-75
2022/10/18 08:46:46;;;;;;;15.10;8.18;;;18.80;99.90;;;;;;5181266;28;20223;-74
2022/10/18 08:49:45;;;;;;;15.00;9.00;;;18.40;99.90;;;;;;5182615;28;20552;-74
2022/10/18 08:52:51;;;;;;;14.15;8.88;;;18.20;99.90;;;;;;5215873;28;20028;-75
2022/10/18 08:55:44;;;;;;;13.85;8.68;;;18.90;99.90;;;;;;5221968;28;20055;-76
2022/10/18 08:58:25;;;;;;;82.95;16.80;;;19.00;99.90;;;;;;5210000;28;20031;-76
2022/10/18 09:01:15;;;;;;;14.85;9.10;;;19.10;99.90;;;;;;5198643;28;20037;-77
2022/10/18 09:04:23;;;;;;;12.55;7.93;;;19.60;99.90;;;;;;5225231;28;20037;-76
2022/10/18 09:07:21;;;;;;;12.10;7.72;;;19.90;99.90;;;;;;5175127;28;20065;-76
2022/10/18 09:10:30;;;;;;;12.35;9.23;;;20.70;99.90;;;;;;5220089;28;20035;-76
2022/10/18 09:13:10;;;;;;;13.05;8.25;;;20.90;99.90;;;;;;5182343;28;20354;-76
2022/10/18 09:15:49;;;;;;;9.15;7.55;;;20.90;99.90;;;;;;5201696;28;20025;-76
2022/10/18 09:18:53;;;;;;;10.80;7.78;;;20.80;99.90;;;;;;5218691;28;20245;-75
2022/10/18 09:21:51;;;;;;;14.27;8.57;;;20.60;99.90;;;;;;5201613;28;20342;-75
2022/10/18 09:24:47;;;;;;;12.98;8.35;;;20.70;99.90;;;;;;5200595;28;20037;-76
2022/10/18 09:27:28;;;;;;;12.70;7.50;;;20.90;99.90;;;;;;5213650;28;20376;-76
2022/10/18 09:30:16;;;;;;;11.23;7.90;;;21.50;99.90;;;;;;5219416;28;20033;-76
2022/10/18 09:33:25;;;;;;;14.55;8.18;;;21.90;99.90;;;;;;5219316;28;20025;-77
2022/10/18 09:36:00;;;;;;;14.35;8.45;;;22.00;99.90;;;;;;5190737;28;20318;-76
2022/10/18 09:38:40;;;;;;;14.80;8.23;;;21.80;99.90;;;;;;5202085;28;20025;-76
2022/10/18 09:41:38;;;;;;;13.63;8.25;;;22.00;99.90;;;;;;5201931;28;20040;-75
2022/10/18 09:44:17;;;;;;;12.73;8.55;;;22.90;99.90;;;;;;5198233;28;20200;-74
2022/10/18 09:46:56;;;;;;;10.07;8.50;;;22.60;99.90;;;;;;5219443;28;20306;-75
2022/10/18 09:49:39;;;;;;;9.63;7.32;;;22.80;99.90;;;;;;5218661;28;20492;-74
2022/10/18 09:52:18;;;;;;;15.82;7.65;;;22.70;99.90;;;;;;5216808;28;20167;-75
2022/10/18 09:54:55;;;;;;;9.07;7.28;;;21.90;99.90;;;;;;5188283;28;20045;-76
2022/10/18 09:57:39;;;;;;;11.13;7.07;;;22.40;99.90;;;;;;5219584;28;20215;-76
2022/10/18 10:00:23;;;;;;;7.70;6.88;;;22.90;99.90;;;;;;5199884;28;20424;-77
2022/10/18 10:02:54;;;;;;;9.52;6.88;;;23.70;99.90;;;;;;5228752;28;20104;-77
2022/10/18 10:05:25;;;;;;;8.73;7.18;;;24.40;99.90;;;;;;5209070;28;20056;-76
2022/10/18 10:07:58;;;;;;;8.13;6.75;;;24.80;99.90;;;;;;5202629;28;20028;-78
2022/10/18 10:10:30;;;;;;;12.52;6.95;;;25.30;99.90;;;;;;5219674;28;20021;-76
2022/10/18 10:13:25;;;;;;;13.18;6.97;;;26.10;99.90;;;;;;5220263;28;20349;-76
2022/10/18 10:16:02;;;;;;;8.77;6.83;;;27.00;99.90;;;;;;5219760;28;20032;-76
2022/10/18 10:18:39;;;;;;;10.55;6.35;;;27.30;99.90;;;;;;5201943;28;20043;-75
2022/10/18 10:21:20;;;;;;;10.98;6.20;;;27.80;99.90;;;;;;5221221;28;20390;-76
2022/10/18 10:23:54;;;;;;;9.40;6.97;;;28.30;99.90;;;;;;5214336;28;20021;-76
2022/10/18 10:26:37;;;;;;;8.52;6.25;;;28.50;99.90;;;;;;5216335;28;20033;-78
2022/10/18 10:29:56;;;;;;;7.68;6.38;;;27.90;99.90;;;;;;5221636;28;20036;-77
2022/10/18 10:32:30;;;;;;;9.80;6.45;;;27.40;99.90;;;;;;5145382;28;20270;-76
2022/10/18 10:35:18;;;;;;;9.75;6.38;;;28.30;99.90;;;;;;5140463;28;20283;-77
2022/10/18 10:37:53;;;;;;;8.90;7.00;;;29.30;99.90;;;;;;5138576;28;20041;-77
2022/10/18 10:40:33;;;;;;;10.77;6.78;;;29.00;99.90;;;;;;5138678;28;20056;-77
2022/10/18 10:43:14;;;;;;;12.15;6.50;;;28.90;99.90;;;;;;5138243;28;20065;-78
2022/10/18 10:46:01;;;;;;;9.88;6.40;;;29.80;99.90;;;;;;5138181;28;20039;-78
2022/10/18 10:48:52;;;;;;;13.35;7.05;;;30.50;99.90;;;;;;5138044;28;20053;-78
2022/10/18 10:51:29;;;;;;;10.07;6.97;;;31.10;99.90;;;;;;5137361;28;20367;-77
2022/10/18 10:54:03;;;;;;;10.02;6.70;;;30.20;99.90;;;;;;5138745;28;20269;-76
2022/10/18 10:56:35;;;;;;;;;;;29.80;99.90;;;;;;5106636;28;20086;-77
2022/10/18 10:59:14;;;;;;;11.60;6.82;;;30.00;99.90;;;;;;5135454;28;19903;-78
2022/10/18 11:01:50;;;;;;;10.07;6.22;;;29.40;99.90;;;;;;5119802;28;20027;-78
2022/10/18 11:04:23;;;;;;;9.60;5.80;;;30.10;99.90;;;;;;5129497;28;20026;-78
2022/10/18 11:07:15;;;;;;;8.63;6.28;;;30.90;99.90;;;;;;5120064;28;20362;-78
2022/10/18 11:09:50;;;;;;;10.98;6.15;;;31.10;99.90;;;;;;5196695;28;20230;-77
2022/10/18 11:12:21;;;;;;;8.60;6.45;;;31.00;99.90;;;;;;5224139;28;20052;-79
2022/10/18 11:15:04;;;;;;;8.73;6.18;;;31.80;99.90;;;;;;5206022;28;20303;-78
2022/10/18 11:17:44;;;;;;;10.05;6.57;;;31.50;99.90;;;;;;5204945;28;20037;-81
2022/10/18 11:20:25;;;;;;;11.50;6.20;;;31.30;99.90;;;;;;5221379;28;20213;-81
2022/10/18 11:23:05;;;;;;;17.48;6.10;;;31.50;99.90;;;;;;5203677;28;20365;-78
2022/10/18 11:25:57;;;;;;;9.30;5.70;;;32.60;99.90;;;;;;5223365;28;20043;-79
2022/10/18 11:28:37;;;;;;;10.88;6.88;;;32.70;99.90;;;;;;5223612;28;20013;-78
2022/10/18 11:31:28;;;;;;;9.23;6.57;;;32.70;99.90;;;;;;5222122;28;20035;-80
2022/10/18 11:34:08;;;;;;;9.13;6.20;;;32.70;99.90;;;;;;5214075;28;20031;-83
2022/10/18 11:37:10;;;;;;;14.35;7.05;;;32.70;99.90;;;;;;5223273;28;20242;-79
2022/10/18 11:39:47;;;;;;;7.97;6.40;;;32.90;99.90;;;;;;5223124;28;20112;-79
2022/10/18 11:42:32;;;;;;;7.55;6.13;;;32.30;99.90;;;;;;5221680;28;20032;-80
2022/10/18 11:45:04;;;;;;;12.52;6.97;;;33.10;99.90;;;;;;5220897;28;20039;-79
2022/10/18 11:48:18;;;;;;;9.65;6.47;;;32.80;99.90;;;;;;5205617;28;20031;-78
2022/10/18 11:51:06;;;;;;;12.65;6.80;;;32.90;99.90;;;;;;5190682;28;20544;-81
2022/10/18 11:53:59;;;;;;;12.10;6.15;;;33.70;99.90;;;;;;5228606;28;20029;-79
2022/10/18 11:56:54;;;;;;;8.93;5.97;;;34.00;99.90;;;;;;5226355;28;20029;-78
2022/10/18 11:59:36;;;;;;;10.18;6.18;;;33.70;99.90;;;;;;5227611;28;20021;-79
2022/10/18 12:02:16;;;;;;;8.55;6.40;;;33.60;99.90;;;;;;5227201;28;20058;-79
2022/10/18 12:04:56;;;;;;;10.63;6.18;;;33.90;99.90;;;;;;5209132;28;20048;-78
2022/10/18 12:07:33;;;;;;;10.80;7.03;;;34.00;99.90;;;;;;5216642;28;20033;-80
2022/10/18 12:10:07;;;;;;;11.18;6.72;;;34.10;99.90;;;;;;5205142;28;20315;-80
2022/10/18 12:12:50;;;;;;;9.07;6.97;;;34.00;99.90;;;;;;5204652;28;20450;-78
2022/10/18 12:15:24;;;;;;;7.82;7.03;;;34.00;99.90;;;;;;5221432;28;20028;-79
2022/10/18 12:18:00;;;;;;;11.18;7.20;;;33.60;99.90;;;;;;5203376;28;20025;-80
2022/10/18 12:20:41;;;;;;;10.27;6.75;;;33.20;99.90;;;;;;5221315;28;20195;-78
2022/10/18 12:23:19;;;;;;;9.48;7.60;;;33.10;99.90;;;;;;5204283;28;20035;-79
2022/10/18 12:25:55;;;;;;;12.38;6.85;;;33.30;99.90;;;;;;5222735;28;20024;-80
2022/10/18 12:28:26;;;;;;;13.80;7.45;;;32.00;99.90;;;;;;5222368;28;20029;-79
2022/10/18 12:31:16;;;;;;;9.23;6.28;;;32.00;99.90;;;;;;5198301;28;20037;-79
2022/10/18 12:33:51;;;;;;;8.30;6.65;;;32.80;99.90;;;;;;5215232;28;20033;-78
2022/10/18 12:36:43;;;;;;;10.35;6.53;;;33.30;99.90;;;;;;5202778;28;20286;-77
2022/10/18 12:39:46;;;;;;;9.65;6.72;;;33.70;99.90;;;;;;5203357;28;20360;-78
2022/10/18 12:42:26;;;;;;;11.20;6.97;;;32.90;99.90;;;;;;5212503;28;20037;-78
2022/10/18 12:45:32;;;;;;;10.27;6.78;;;33.00;99.90;;;;;;5216542;28;20009;-77
2022/10/18 12:48:07;;;;;;;11.60;7.32;;;31.90;99.90;;;;;;5213427;28;20029;-78
2022/10/18 12:50:41;;;;;;;10.65;7.10;;;30.40;99.90;;;;;;5217729;28;20029;-78
2022/10/18 12:53:17;;;;;;;11.48;6.65;;;30.30;99.90;;;;;;5206390;28;20036;-78
2022/10/18 12:55:53;;;;;;;9.80;6.72;;;30.60;99.90;;;;;;5207665;28;20028;-79
2022/10/18 12:58:29;;;;;;;10.02;6.32;;;30.90;99.90;;;;;;5219102;28;20019;-77
2022/10/18 13:01:05;;;;;;;9.52;7.32;;;31.00;99.90;;;;;;5213909;28;20496;-77
2022/10/18 13:03:55;;;;;;;11.40;7.07;;;31.70;99.90;;;;;;5205384;28;20033;-80
2022/10/18 13:06:58;;;;;;;17.50;7.63;;;31.00;99.90;;;;;;5212041;28;20037;-79
2022/10/18 13:09:35;;;;;;;12.98;6.75;;;31.30;99.90;;;;;;5214338;28;20032;-78
2022/10/18 13:12:11;;;;;;;8.55;6.55;;;31.90;99.90;;;;;;5215909;28;20025;-79
2022/10/18 13:15:05;;;;;;;11.95;6.68;;;32.10;99.90;;;;;;5219095;28;20043;-78
2022/10/18 13:17:50;;;;;;;11.88;6.68;;;32.50;99.90;;;;;;5219296;28;20025;-79
2022/10/18 13:20:39;;;;;;;9.55;7.40;;;32.70;99.90;;;;;;5213456;28;20595;-79
2022/10/18 13:23:50;;;;;;;13.93;6.90;;;32.50;99.90;;;;;;5214867;28;20029;-79
2022/10/18 13:26:43;;;;;;;12.18;7.07;;;32.30;99.90;;;;;;5218242;28;20045;-78
2022/10/18 13:29:20;;;;;;;12.75;7.22;;;32.50;99.90;;;;;;5215968;28;20017;-79